createdAt,value
2022-11-09T00:01:10.652Z,5.97
2022-11-09T00:03:37.367Z,6.18
2022-11-09T00:06:04.133Z,5.70
2022-11-09T00:08:30.840Z,4.55
2022-11-09T00:11:03.886Z,4.03
2022-11-09T00:13:36.241Z,4.57
2022-11-09T00:16:06.059Z,4.95
2022-11-09T00:18:35.034Z,5.30
2022-11-09T00:21:15.888Z,4.43
2022-11-09T00:23:42.966Z,5.28
2022-11-09T00:26:12.044Z,4.65
2022-11-09T00:28:39.220Z,3.97
2022-11-09T00:31:12.564Z,3.97
2022-11-09T00:33:41.929Z,4.13
2022-11-09T00:36:12.140Z,3.90
2022-11-09T00:38:42.567Z,3.53
2022-11-09T00:41:12.771Z,3.63
2022-11-09T00:43:39.429Z,6.10
2022-11-09T00:46:06.229Z,7.45
2022-11-09T00:48:35.011Z,7.47
2022-11-09T00:51:07.829Z,7.43
2022-11-09T00:53:34.692Z,7.50
2022-11-09T00:56:11.775Z,8.05
2022-11-09T00:58:41.053Z,8.93
2022-11-09T01:01:16.522Z,8.95
2022-11-09T01:03:45.002Z,8.32
2022-11-09T01:06:17.821Z,9.27
2022-11-09T01:08:47.683Z,9.38
2022-11-09T01:11:18.099Z,9.65
2022-11-09T01:13:45.359Z,10.13
2022-11-09T01:16:23.317Z,10.68
2022-11-09T01:18:55.226Z,11.60
2022-11-09T01:21:22.132Z,12.20
2022-11-09T01:23:51.139Z,12.35
2022-11-09T01:26:20.189Z,11.05
2022-11-09T01:28:46.948Z,11.13
2022-11-09T01:31:16.670Z,10.23
2022-11-09T01:33:46.055Z,9.63
2022-11-09T01:36:15.888Z,9.52
2022-11-09T01:38:45.657Z,9.30
2022-11-09T01:41:21.546Z,8.88
2022-11-09T01:44:03.272Z,9.18
2022-11-09T01:47:01.830Z,8.85
2022-11-09T01:49:41.018Z,9.23
2022-11-09T01:52:12.853Z,8.85
2022-11-09T01:54:45.605Z,9.68
2022-11-09T01:57:20.389Z,8.73
2022-11-09T01:59:52.733Z,9.02
2022-11-09T02:02:19.805Z,9.23
2022-11-09T02:04:55.290Z,9.82
2022-11-09T02:07:25.135Z,10.52
2022-11-09T02:10:13.992Z,12.00
2022-11-09T02:12:41.040Z,12.93
2022-11-09T02:15:12.426Z,12.55
2022-11-09T02:17:43.069Z,13.23
2022-11-09T02:20:12.570Z,14.20
2022-11-09T02:22:41.427Z,13.90
2022-11-09T02:25:09.909Z,15.32
2022-11-09T02:27:37.576Z,14.82
2022-11-09T02:30:04.809Z,15.95
2022-11-09T02:32:31.519Z,16.27
2022-11-09T02:34:58.603Z,16.52
2022-11-09T02:37:48.460Z,16.95
2022-11-09T02:40:27.121Z,16.70
2022-11-09T02:42:54.320Z,17.30
2022-11-09T02:45:20.966Z,17.70
2022-11-09T02:47:50.111Z,16.30
2022-11-09T02:50:16.977Z,16.92
2022-11-09T02:52:43.731Z,16.80
2022-11-09T02:55:10.829Z,16.85
2022-11-09T02:57:37.465Z,16.52
2022-11-09T03:00:06.003Z,15.95
2022-11-09T03:02:35.250Z,17.23
2022-11-09T03:05:04.911Z,16.70
2022-11-09T03:07:32.501Z,16.48
2022-11-09T03:10:01.472Z,16.58
2022-11-09T03:12:31.225Z,16.05
2022-11-09T03:15:02.022Z,15.90
2022-11-09T03:17:29.201Z,16.05
2022-11-09T03:19:58.462Z,15.88
2022-11-09T03:22:30.288Z,15.98
2022-11-09T03:24:56.944Z,15.27
2022-11-09T03:27:25.991Z,15.73
2022-11-09T03:29:55.430Z,15.77
2022-11-09T03:32:22.058Z,16.35
2022-11-09T03:34:49.236Z,17.13
2022-11-09T03:37:15.923Z,17.38
2022-11-09T03:39:42.653Z,17.55
2022-11-09T03:42:09.289Z,18.27
2022-11-09T03:44:38.070Z,17.90
2022-11-09T03:47:04.777Z,18.42
2022-11-09T03:49:31.497Z,20.38
2022-11-09T03:51:58.131Z,19.60
2022-11-09T03:54:27.321Z,19.42
2022-11-09T03:56:53.981Z,18.48
2022-11-09T03:59:20.609Z,19.48
2022-11-09T04:01:49.432Z,19.83
2022-11-09T04:04:20.870Z,19.20
2022-11-09T04:06:47.564Z,18.83
2022-11-09T04:09:14.348Z,19.48
2022-11-09T04:11:41.060Z,19.70
2022-11-09T04:14:07.715Z,18.85
2022-11-09T04:16:36.885Z,19.05
2022-11-09T04:19:03.554Z,18.02
2022-11-09T04:21:34.131Z,19.30
2022-11-09T04:24:00.815Z,19.15
2022-11-09T04:26:29.904Z,18.27
2022-11-09T04:28:56.549Z,17.92
2022-11-09T04:31:27.763Z,18.52
2022-11-09T04:33:54.822Z,19.88
2022-11-09T04:36:21.692Z,17.95
2022-11-09T04:38:51.534Z,17.83
2022-11-09T04:41:18.141Z,18.10
2022-11-09T04:43:44.823Z,18.25
2022-11-09T04:46:16.509Z,17.48
2022-11-09T04:48:44.300Z,17.90
2022-11-09T04:51:11.155Z,16.92
2022-11-09T04:53:38.553Z,17.83
2022-11-09T04:56:06.189Z,18.30
2022-11-09T04:58:33.317Z,16.98
2022-11-09T05:01:10.628Z,18.00
2022-11-09T05:03:37.616Z,16.63
2022-11-09T05:06:24.507Z,16.02
2022-11-09T05:08:51.677Z,15.70
2022-11-09T05:11:20.509Z,15.63
2022-11-09T05:13:47.233Z,16.23
2022-11-09T05:16:14.330Z,14.93
2022-11-09T05:18:40.939Z,13.75
2022-11-09T05:21:07.682Z,13.30
2022-11-09T05:23:53.088Z,12.82
2022-11-09T05:26:22.281Z,10.43
2022-11-09T05:28:52.747Z,9.70
2022-11-09T05:31:19.587Z,8.20
2022-11-09T05:33:48.918Z,7.43
2022-11-09T05:36:15.606Z,5.45
2022-11-09T05:38:42.247Z,4.70
2022-11-09T05:41:08.877Z,4.50
2022-11-09T05:43:35.531Z,3.95
2022-11-09T05:46:06.402Z,3.85
2022-11-09T05:48:33.726Z,3.78
2022-11-09T05:51:04.834Z,3.22
2022-11-09T05:53:32.155Z,3.03
2022-11-09T05:56:10.228Z,2.70
2022-11-09T05:58:38.795Z,2.80
2022-11-09T06:01:07.385Z,3.03
2022-11-09T06:03:34.123Z,3.00
2022-11-09T06:06:08.848Z,2.55
2022-11-09T06:08:36.144Z,2.35
2022-11-09T06:11:05.522Z,3.10
2022-11-09T06:13:36.060Z,3.40
2022-11-09T06:16:04.693Z,3.25
2022-11-09T06:18:35.779Z,3.50
2022-11-09T06:21:04.298Z,3.75
2022-11-09T06:23:31.517Z,3.70
2022-11-09T06:26:16.612Z,4.43
2022-11-09T06:28:43.418Z,4.07
2022-11-09T06:31:17.540Z,4.15
2022-11-09T06:33:46.451Z,3.97
2022-11-09T06:36:15.523Z,4.97
2022-11-09T06:38:42.578Z,4.70
2022-11-09T06:41:12.499Z,4.97
2022-11-09T06:43:41.963Z,6.18
2022-11-09T06:46:10.916Z,6.28
2022-11-09T06:48:41.140Z,6.95
2022-11-09T06:51:11.021Z,6.93
2022-11-09T06:53:41.351Z,7.20
2022-11-09T06:56:11.088Z,7.00
2022-11-09T06:58:37.841Z,7.38
2022-11-09T07:01:12.951Z,6.30
2022-11-09T07:03:40.213Z,6.05
2022-11-09T07:06:09.394Z,5.45
2022-11-09T07:08:36.186Z,4.88
2022-11-09T07:11:13.080Z,4.90
2022-11-09T07:13:40.427Z,4.30
2022-11-09T07:16:07.613Z,3.75
2022-11-09T07:18:38.637Z,3.03
2022-11-09T07:21:08.855Z,2.40
2022-11-09T07:23:42.481Z,2.25
2022-11-09T07:26:09.386Z,2.30
2022-11-09T07:28:36.867Z,2.63
2022-11-09T07:31:04.032Z,2.42
2022-11-09T07:33:33.113Z,3.20
2022-11-09T07:36:01.352Z,3.10
2022-11-09T07:38:31.645Z,2.92
2022-11-09T07:41:04.829Z,2.67
2022-11-09T07:43:31.591Z,2.42
2022-11-09T07:45:58.308Z,2.20
2022-11-09T07:48:27.503Z,2.10
2022-11-09T07:50:57.202Z,2.25
2022-11-09T07:53:24.001Z,2.28
2022-11-09T07:56:03.812Z,2.35
2022-11-09T07:58:35.681Z,2.50
2022-11-09T08:01:10.462Z,2.70
2022-11-09T08:03:39.922Z,2.42
2022-11-09T08:06:13.068Z,2.47
2022-11-09T08:08:42.406Z,3.20
2022-11-09T08:11:09.013Z,3.20
2022-11-09T08:13:35.731Z,3.22
2022-11-09T08:16:07.698Z,3.88
2022-11-09T08:18:34.444Z,5.05
2022-11-09T08:21:05.375Z,5.05
2022-11-09T08:23:32.273Z,6.05
2022-11-09T08:26:08.308Z,6.90
2022-11-09T08:28:37.841Z,6.47
2022-11-09T08:31:06.912Z,6.72
2022-11-09T08:33:39.239Z,6.95
2022-11-09T08:36:13.703Z,6.45
2022-11-09T08:38:42.137Z,5.55
2022-11-09T08:41:14.641Z,5.95
2022-11-09T08:43:41.530Z,5.53
2022-11-09T08:46:08.493Z,4.90
2022-11-09T08:48:35.189Z,4.25
2022-11-09T08:51:01.896Z,4.03
2022-11-09T08:53:29.396Z,3.67
2022-11-09T08:55:58.738Z,3.90
2022-11-09T08:58:25.901Z,3.20
2022-11-09T09:00:52.934Z,3.08
2022-11-09T09:03:19.593Z,2.85
2022-11-09T09:05:48.540Z,2.20
2022-11-09T09:08:15.754Z,2.90
2022-11-09T09:10:42.974Z,2.40
2022-11-09T09:13:10.263Z,2.15
2022-11-09T09:15:39.221Z,2.17
2022-11-09T09:18:08.248Z,2.00
2022-11-09T09:20:39.769Z,2.08
2022-11-09T09:23:06.440Z,2.40
2022-11-09T09:25:33.180Z,2.50
2022-11-09T09:28:01.950Z,2.47
2022-11-09T09:30:28.985Z,3.40
2022-11-09T09:33:01.837Z,2.08
2022-11-09T09:35:33.638Z,1.70
2022-11-09T09:38:00.378Z,1.90
2022-11-09T09:40:38.998Z,2.15
2022-11-09T09:43:12.077Z,1.98
2022-11-09T09:45:50.301Z,2.70
2022-11-09T09:48:37.891Z,2.33
2022-11-09T09:51:16.403Z,2.17
2022-11-09T09:53:53.241Z,2.47
2022-11-09T09:56:24.707Z,2.30
2022-11-09T09:59:18.232Z,2.20
2022-11-09T10:01:45.857Z,2.30
2022-11-09T10:04:22.010Z,1.70
2022-11-09T10:07:07.354Z,2.20
2022-11-09T10:09:54.961Z,2.13
2022-11-09T10:12:32.106Z,2.22
2022-11-09T10:15:16.092Z,1.90
2022-11-09T10:17:52.455Z,2.20
2022-11-09T10:20:52.844Z,2.25
2022-11-09T10:23:41.847Z,2.03
2022-11-09T10:26:21.531Z,2.60
2022-11-09T10:29:15.101Z,2.10
2022-11-09T10:31:42.446Z,2.40
2022-11-09T10:34:19.312Z,2.40
2022-11-09T10:36:57.867Z,2.40
2022-11-09T10:39:29.701Z,1.83
2022-11-09T10:41:58.783Z,1.58
2022-11-09T10:44:25.472Z,1.90
2022-11-09T10:47:04.463Z,2.00
2022-11-09T10:49:36.563Z,1.77
2022-11-09T10:52:06.351Z,1.50
2022-11-09T10:54:37.579Z,1.77
2022-11-09T10:57:27.680Z,1.70
2022-11-09T10:59:57.077Z,1.77
2022-11-09T11:02:39.504Z,1.80
2022-11-09T11:05:06.103Z,1.88
2022-11-09T11:07:35.232Z,1.45
2022-11-09T11:10:17.032Z,1.83
2022-11-09T11:12:46.559Z,1.88
2022-11-09T11:15:25.701Z,1.90
2022-11-09T11:18:02.014Z,2.00
2022-11-09T11:20:34.580Z,2.03
2022-11-09T11:23:25.017Z,2.17
2022-11-09T11:25:57.889Z,2.03
2022-11-09T11:28:42.807Z,1.80
2022-11-09T11:31:16.851Z,1.73
2022-11-09T11:33:44.069Z,2.05
2022-11-09T11:36:25.434Z,1.83
2022-11-09T11:39:27.029Z,2.13
2022-11-09T11:42:33.851Z,2.23
2022-11-09T11:45:38.838Z,2.00
2022-11-09T11:48:13.095Z,1.75
2022-11-09T11:50:46.681Z,1.70
2022-11-09T11:53:31.497Z,2.15
2022-11-09T11:56:13.153Z,1.80
2022-11-09T11:59:02.553Z,1.95
2022-11-09T12:01:58.576Z,2.15
2022-11-09T12:04:32.446Z,1.80
2022-11-09T12:07:04.468Z,1.95
2022-11-09T12:10:15.965Z,1.90
2022-11-09T12:13:02.228Z,2.05
2022-11-09T12:15:45.930Z,1.90
2022-11-09T12:18:24.601Z,1.42
2022-11-09T12:21:09.451Z,1.67
2022-11-09T12:23:57.797Z,1.92
2022-11-09T12:27:04.752Z,2.00
2022-11-09T12:29:45.845Z,1.63
2022-11-09T12:32:41.806Z,2.35
2022-11-09T12:35:57.393Z,2.25
2022-11-09T12:38:50.237Z,2.13
2022-11-09T12:41:21.236Z,2.30
2022-11-09T12:43:53.859Z,1.70
2022-11-09T12:46:29.987Z,1.98
2022-11-09T12:49:01.775Z,1.60
2022-11-09T12:51:29.237Z,1.63
2022-11-09T12:53:56.974Z,1.52
2022-11-09T12:56:25.630Z,1.75
2022-11-09T12:59:12.265Z,1.42
2022-11-09T13:01:39.028Z,1.58
2022-11-09T13:04:06.547Z,1.70
2022-11-09T13:06:36.758Z,1.63
2022-11-09T13:09:22.171Z,2.20
2022-11-09T13:11:51.127Z,2.08
2022-11-09T13:14:33.805Z,2.50
2022-11-09T13:17:20.487Z,1.90
2022-11-09T13:19:54.348Z,2.28
2022-11-09T13:25:01.315Z,2.03
2022-11-09T13:27:38.988Z,2.33
2022-11-09T13:30:24.717Z,2.20
2022-11-09T13:33:14.624Z,2.13
2022-11-09T13:35:44.199Z,2.40
2022-11-09T13:38:20.830Z,1.85
2022-11-09T13:40:49.686Z,2.10
2022-11-09T13:43:23.572Z,2.20
2022-11-09T13:46:07.235Z,1.90
2022-11-09T13:48:44.200Z,2.10
2022-11-09T13:51:18.416Z,2.17
2022-11-09T13:53:58.765Z,2.28
2022-11-09T13:56:37.814Z,2.42
2022-11-09T13:59:27.003Z,2.45
2022-11-09T14:01:55.146Z,2.53
2022-11-09T14:04:33.522Z,2.33
2022-11-09T14:07:15.725Z,2.40
2022-11-09T14:10:10.761Z,2.10
2022-11-09T14:12:43.462Z,2.50
2022-11-09T14:15:29.037Z,2.63
2022-11-09T14:18:07.882Z,2.75
2022-11-09T14:21:12.004Z,2.65
2022-11-09T14:23:38.961Z,2.90
2022-11-09T14:26:16.557Z,2.83
2022-11-09T14:28:43.250Z,2.72
2022-11-09T14:31:45.309Z,3.30
2022-11-09T14:34:15.596Z,3.47
2022-11-09T14:36:43.023Z,3.25
2022-11-09T14:39:29.630Z,3.17
2022-11-09T14:41:56.970Z,3.33
2022-11-09T14:44:35.804Z,3.00
2022-11-09T14:47:03.683Z,3.45
2022-11-09T14:49:33.085Z,3.15
2022-11-09T14:52:00.859Z,4.10
2022-11-09T14:54:30.768Z,3.70
2022-11-09T14:57:00.323Z,3.45
2022-11-09T14:59:36.015Z,3.85
2022-11-09T15:02:18.196Z,3.28
2022-11-09T15:04:55.226Z,4.05
2022-11-09T15:07:25.091Z,3.05
2022-11-09T15:09:58.312Z,2.90
2022-11-09T15:12:25.222Z,3.00
2022-11-09T15:14:57.819Z,2.75
2022-11-09T15:17:28.905Z,3.10
2022-11-09T15:19:58.430Z,2.50
2022-11-09T15:22:37.250Z,2.10
2022-11-09T15:25:24.366Z,1.80
2022-11-09T15:28:08.214Z,1.50
2022-11-09T15:30:37.722Z,1.48
2022-11-09T15:33:18.935Z,1.40
2022-11-09T15:35:55.326Z,1.10
2022-11-09T15:38:45.421Z,1.10
2022-11-09T15:41:18.484Z,1.00
2022-11-09T15:43:45.451Z,1.00
2022-11-09T15:46:21.024Z,1.15
2022-11-09T15:48:50.350Z,1.10
2022-11-09T15:51:17.961Z,1.25
2022-11-09T15:53:44.796Z,1.33
2022-11-09T15:56:21.246Z,1.48
2022-11-09T15:58:52.381Z,1.02
2022-11-09T16:01:19.077Z,1.40
2022-11-09T16:03:45.738Z,1.65
2022-11-09T16:06:15.664Z,2.92
2022-11-09T16:08:42.284Z,2.35
2022-11-09T16:11:10.227Z,2.17
2022-11-09T16:13:36.844Z,2.80
2022-11-09T16:16:05.606Z,2.58
2022-11-09T16:18:33.494Z,3.05
2022-11-09T16:21:14.902Z,2.40
2022-11-09T16:23:41.744Z,3.30
2022-11-09T16:26:13.304Z,2.63
2022-11-09T16:28:40.478Z,2.83
2022-11-09T16:31:07.984Z,2.92
2022-11-09T16:33:37.198Z,2.55
2022-11-09T16:36:06.594Z,3.00
2022-11-09T16:38:44.487Z,3.60
2022-11-09T16:41:12.141Z,3.50
2022-11-09T16:43:39.210Z,3.45
2022-11-09T16:46:09.867Z,3.50
2022-11-09T16:48:38.909Z,3.65
2022-11-09T16:51:08.073Z,3.30
2022-11-09T16:53:34.722Z,4.00
2022-11-09T16:56:04.482Z,1.73
2022-11-09T16:58:31.104Z,0.98
2022-11-09T17:01:11.638Z,1.00
2022-11-09T17:03:39.566Z,1.15
2022-11-09T17:06:10.790Z,0.95
2022-11-09T17:08:41.726Z,1.30
2022-11-09T17:11:14.921Z,1.70
2022-11-09T17:13:42.059Z,1.20
2022-11-09T17:16:12.929Z,1.35
2022-11-09T17:18:40.080Z,0.80
2022-11-09T17:21:11.287Z,0.90
2022-11-09T17:23:38.616Z,1.13
2022-11-09T17:26:07.645Z,1.45
2022-11-09T17:28:38.757Z,1.30
2022-11-09T17:31:20.179Z,1.40
2022-11-09T17:33:47.223Z,1.38
2022-11-09T17:36:35.084Z,1.30
2022-11-09T17:39:06.245Z,1.20
2022-11-09T17:41:39.965Z,1.50
2022-11-09T17:44:09.146Z,1.08
2022-11-09T17:46:35.917Z,1.17
2022-11-09T17:49:09.765Z,1.05
2022-11-09T17:51:40.333Z,1.60
2022-11-09T17:54:07.132Z,1.33
2022-11-09T17:56:34.561Z,1.88
2022-11-09T17:59:03.056Z,1.20
2022-11-09T18:01:29.999Z,1.60
2022-11-09T18:03:56.805Z,1.30
2022-11-09T18:06:29.354Z,1.15
2022-11-09T18:09:34.514Z,1.20
2022-11-09T18:11:45.874Z,0.95
2022-11-09T18:14:12.688Z,1.00
2022-11-09T18:16:39.447Z,1.30
2022-11-09T18:19:08.629Z,1.33
2022-11-09T18:21:37.419Z,1.42
2022-11-09T18:24:06.910Z,1.20
2022-11-09T18:26:36.238Z,1.50
2022-11-09T18:29:05.442Z,1.10
2022-11-09T18:31:32.197Z,1.63
2022-11-09T18:33:58.887Z,1.00
2022-11-09T18:36:26.113Z,1.25
2022-11-09T18:38:55.911Z,1.40
2022-11-09T18:41:25.574Z,1.13
2022-11-09T18:43:53.843Z,1.50
2022-11-09T18:46:21.722Z,1.48
2022-11-09T18:48:53.636Z,2.10
2022-11-09T18:51:20.839Z,1.67
2022-11-09T18:53:48.464Z,1.50
2022-11-09T18:56:25.952Z,1.90
2022-11-09T18:58:54.841Z,2.67
2022-11-09T19:01:27.087Z,1.63
2022-11-09T19:04:00.366Z,1.65
2022-11-09T19:06:27.897Z,1.80
2022-11-09T19:09:13.454Z,1.77
2022-11-09T19:11:44.846Z,2.35
2022-11-09T19:14:11.871Z,1.90
2022-11-09T19:16:38.745Z,2.10
2022-11-09T19:19:05.414Z,2.25
2022-11-09T19:21:41.753Z,2.22
2022-11-09T19:24:12.261Z,1.58
2022-11-09T19:26:39.412Z,1.52
2022-11-09T19:29:08.929Z,2.28
2022-11-09T19:31:36.420Z,1.83
2022-11-09T19:34:03.172Z,1.52
2022-11-09T19:36:31.571Z,1.50
2022-11-09T19:39:01.109Z,1.58
2022-11-09T19:41:27.868Z,1.70
2022-11-09T19:43:59.027Z,1.92
2022-11-09T19:46:27.894Z,1.90
2022-11-09T19:48:57.525Z,1.70
2022-11-09T19:51:24.386Z,1.88
2022-11-09T19:53:53.109Z,2.30
2022-11-09T19:56:21.148Z,2.03
2022-11-09T19:58:53.371Z,2.10
2022-11-09T20:01:23.326Z,2.22
2022-11-09T20:03:51.495Z,1.77
2022-11-09T20:06:19.505Z,2.80
2022-11-09T20:08:48.551Z,1.70
2022-11-09T20:11:39.095Z,1.80
2022-11-09T20:14:09.051Z,1.60
2022-11-09T20:16:39.439Z,2.63
2022-11-09T20:19:12.174Z,1.85
2022-11-09T20:21:40.180Z,2.38
2022-11-09T20:24:07.430Z,1.92
2022-11-09T20:26:34.133Z,2.17
2022-11-09T20:29:03.497Z,2.10
2022-11-09T20:31:30.384Z,1.77
2022-11-09T20:33:57.187Z,1.90
2022-11-09T20:36:23.909Z,2.92
2022-11-09T20:38:50.877Z,1.73
2022-11-09T20:41:21.667Z,2.05
2022-11-09T20:43:51.079Z,2.15
2022-11-09T20:46:20.275Z,1.75
2022-11-09T20:48:54.212Z,2.10
2022-11-09T20:51:22.289Z,2.10
2022-11-09T20:53:50.618Z,1.70
2022-11-09T20:56:18.776Z,2.10
2022-11-09T20:58:48.127Z,2.85
2022-11-09T21:01:17.544Z,1.88
2022-11-09T21:03:47.605Z,1.98
2022-11-09T21:06:19.871Z,2.33
2022-11-09T21:08:49.953Z,1.95
2022-11-09T21:11:17.831Z,2.92
2022-11-09T21:13:51.864Z,2.20
2022-11-09T21:16:20.089Z,2.58
2022-11-09T21:18:46.926Z,1.98
2022-11-09T21:21:16.587Z,2.30
2022-11-09T21:24:02.145Z,2.50
2022-11-09T21:26:47.382Z,2.00
2022-11-09T21:29:38.131Z,1.60
2022-11-09T21:32:05.904Z,2.30
2022-11-09T21:34:36.731Z,2.63
2022-11-09T21:37:09.340Z,2.25
2022-11-09T21:39:36.070Z,2.08
2022-11-09T21:42:06.085Z,2.38
2022-11-09T21:44:33.694Z,1.77
2022-11-09T21:47:01.774Z,2.00
2022-11-09T21:49:28.629Z,2.10
2022-11-09T21:51:55.317Z,2.10
2022-11-09T21:54:22.578Z,1.67
2022-11-09T21:56:50.523Z,1.92
2022-11-09T21:59:17.705Z,1.98
2022-11-09T22:01:44.845Z,2.65
2022-11-09T22:04:14.464Z,2.53
2022-11-09T22:06:44.935Z,2.30
2022-11-09T22:09:17.343Z,2.58
2022-11-09T22:12:03.107Z,2.47
2022-11-09T22:14:50.582Z,2.60
2022-11-09T22:17:17.376Z,2.42
2022-11-09T22:20:02.438Z,1.95
2022-11-09T22:22:33.878Z,2.00
2022-11-09T22:25:00.632Z,2.08
2022-11-09T22:27:29.301Z,2.25
2022-11-09T22:29:55.929Z,2.50
2022-11-09T22:32:22.737Z,2.63
2022-11-09T22:34:49.649Z,3.40
2022-11-09T22:37:16.459Z,2.00
2022-11-09T22:39:47.241Z,1.95
2022-11-09T22:42:19.117Z,1.80
2022-11-09T22:44:48.042Z,2.03
2022-11-09T22:47:15.060Z,2.38
2022-11-09T22:49:41.750Z,1.90
2022-11-09T22:52:08.516Z,2.53
2022-11-09T22:54:37.493Z,2.30
2022-11-09T22:57:04.206Z,2.30
2022-11-09T22:59:30.925Z,2.00
2022-11-09T23:01:59.805Z,2.15
2022-11-09T23:04:26.477Z,2.20
2022-11-09T23:06:53.339Z,2.22
2022-11-09T23:09:20.036Z,2.58
2022-11-09T23:11:46.734Z,1.98
2022-11-09T23:14:13.407Z,2.13
2022-11-09T23:16:40.100Z,2.05
2022-11-09T23:19:06.733Z,2.55
2022-11-09T23:21:38.851Z,2.45
2022-11-09T23:24:27.570Z,2.88
2022-11-09T23:26:54.314Z,2.40
2022-11-09T23:29:21.008Z,2.25
2022-11-09T23:31:49.895Z,2.20
2022-11-09T23:34:16.559Z,2.40
2022-11-09T23:36:45.576Z,2.30
2022-11-09T23:39:12.277Z,1.80
2022-11-09T23:41:39.012Z,2.35
2022-11-09T23:44:05.619Z,2.22
2022-11-09T23:46:32.342Z,2.97
2022-11-09T23:48:58.965Z,2.70
2022-11-09T23:51:28.153Z,2.22
2022-11-09T23:53:54.755Z,2.25
2022-11-09T23:56:21.616Z,2.22
2022-11-09T23:58:51.692Z,2.50
